Terminal Aerodrome Forecast
Issued by NWS

Home | Current Version | Previous Version | Text Only | Print | Product List | Glossary On
Versions: 1 2 3 4 5 6 7 8 9 10 11 12 13 14 15 16 17 18 19 20 21 22 23 24 25 26 27 28 29 30 31 32 33 34 35 36 37 38 39 40 41
802
FTUS45 KBOI 200808 AAA
TAFJER
TAF AMD
KJER 200808Z 2008/2106 10006KT P6SM FEW025 BKN070
     FM201700 06012KT P6SM OVC070
     FM202000 06015G25KT P6SM SCT015 BKN035
     FM210100 06015KT 2SM -SHSN OVC015=

USA.gov is the U.S. government's official web portal to all federal, state and local government web resources and services.